createdAt,value
2022-10-23T00:00:33.397Z,79.29
2022-10-23T00:02:59.661Z,79.06
2022-10-23T00:05:25.805Z,79.00
2022-10-23T00:07:51.897Z,79.10
2022-10-23T00:10:18.008Z,79.01
2022-10-23T00:12:44.469Z,79.39
2022-10-23T00:15:10.795Z,79.39
2022-10-23T00:17:36.909Z,79.21
2022-10-23T00:20:03.011Z,79.29
2022-10-23T00:22:29.093Z,79.14
2022-10-23T00:24:55.208Z,79.38
2022-10-23T00:27:21.333Z,79.19
2022-10-23T00:29:47.421Z,79.41
2022-10-23T00:32:13.590Z,79.32
2022-10-23T00:34:39.696Z,79.45
2022-10-23T00:37:05.854Z,79.45
2022-10-23T00:39:31.971Z,79.39
2022-10-23T00:41:58.081Z,79.43
2022-10-23T00:44:24.180Z,79.64
2022-10-23T00:46:50.299Z,79.36
2022-10-23T00:49:16.409Z,79.54
2022-10-23T00:51:42.500Z,79.67
2022-10-23T00:54:25.035Z,79.69
2022-10-23T00:56:51.586Z,79.71
2022-10-23T00:59:17.693Z,79.68
2022-10-23T01:01:43.819Z,79.53
2022-10-23T01:04:10.037Z,79.71
2022-10-23T01:06:36.154Z,79.60
2022-10-23T01:09:02.249Z,79.60
2022-10-23T01:11:28.345Z,79.81
2022-10-23T01:13:54.464Z,79.87
2022-10-23T01:16:20.591Z,79.78
2022-10-23T01:18:46.688Z,79.91
2022-10-23T01:21:12.784Z,79.77
2022-10-23T01:23:38.866Z,79.80
2022-10-23T01:26:04.954Z,80.05
2022-10-23T01:28:31.060Z,80.08
2022-10-23T01:30:57.132Z,80.00
2022-10-23T01:33:23.217Z,80.00
2022-10-23T01:35:49.330Z,79.97
2022-10-23T01:38:15.446Z,80.29
2022-10-23T01:40:41.555Z,80.36
2022-10-23T01:43:07.669Z,80.14
2022-10-23T01:45:33.763Z,80.22
2022-10-23T01:47:59.849Z,80.24
2022-10-23T01:50:25.960Z,80.67
2022-10-23T01:52:52.059Z,80.49
2022-10-23T01:55:18.155Z,80.87
2022-10-23T01:57:44.817Z,80.90
2022-10-23T02:00:11.095Z,80.79
2022-10-23T02:02:37.201Z,80.93
2022-10-23T02:05:03.808Z,80.91
2022-10-23T02:07:29.884Z,81.08
2022-10-23T02:09:55.977Z,81.42
2022-10-23T02:12:22.147Z,81.44
2022-10-23T02:14:48.285Z,81.49
2022-10-23T02:17:14.374Z,81.48
2022-10-23T02:19:40.491Z,81.70
2022-10-23T02:22:06.569Z,81.73
2022-10-23T02:24:32.645Z,81.85
2022-10-23T02:26:58.753Z,81.62
2022-10-23T02:29:24.842Z,81.85
2022-10-23T02:31:50.924Z,81.84
2022-10-23T02:34:17.040Z,81.55
2022-10-23T02:36:43.135Z,81.71
2022-10-23T02:39:09.229Z,81.58
2022-10-23T02:41:35.836Z,81.71
2022-10-23T02:44:01.926Z,81.54
2022-10-23T02:46:28.015Z,81.60
2022-10-23T02:48:54.109Z,81.39
2022-10-23T02:51:20.192Z,81.65
2022-10-23T02:53:46.314Z,81.55
2022-10-23T02:56:12.465Z,81.38
2022-10-23T02:58:38.559Z,81.50
2022-10-23T03:01:04.675Z,81.36
2022-10-23T03:03:30.858Z,81.55
2022-10-23T03:05:56.964Z,81.51
2022-10-23T03:08:23.063Z,81.38
2022-10-23T03:10:49.559Z,81.39
2022-10-23T03:13:15.676Z,81.39
2022-10-23T03:15:41.841Z,81.39
2022-10-23T03:18:07.971Z,81.40
2022-10-23T03:20:34.073Z,81.42
2022-10-23T03:23:00.165Z,81.38
2022-10-23T03:25:26.262Z,81.41
2022-10-23T03:27:52.362Z,81.60
2022-10-23T03:30:18.479Z,81.73
2022-10-23T03:32:44.868Z,81.85
2022-10-23T03:35:11.140Z,81.83
2022-10-23T03:37:37.237Z,81.77
2022-10-23T03:40:03.362Z,81.88
2022-10-23T03:42:29.446Z,82.07
2022-10-23T03:44:55.538Z,81.95
2022-10-23T03:47:21.655Z,81.86
2022-10-23T03:49:47.763Z,82.18
2022-10-23T03:52:14.317Z,81.98
2022-10-23T03:54:40.484Z,82.20
2022-10-23T03:57:06.568Z,82.20
2022-10-23T03:59:32.673Z,82.18
2022-10-23T04:01:58.837Z,82.09
2022-10-23T04:04:24.970Z,82.06
2022-10-23T04:06:51.066Z,82.15
2022-10-23T04:09:17.311Z,82.18
2022-10-23T04:11:43.391Z,82.11
2022-10-23T04:14:09.478Z,82.43
2022-10-23T04:16:35.591Z,82.44
2022-10-23T04:19:01.691Z,82.25
2022-10-23T04:21:27.789Z,82.35
2022-10-23T04:23:53.945Z,82.47
2022-10-23T04:26:20.568Z,82.48
2022-10-23T04:28:46.663Z,82.31
2022-10-23T04:31:12.780Z,82.25
2022-10-23T04:33:38.893Z,82.27
2022-10-23T04:36:04.996Z,82.31
2022-10-23T04:38:31.114Z,82.13
2022-10-23T04:40:57.228Z,82.36
2022-10-23T04:43:23.308Z,82.17
2022-10-23T04:45:49.768Z,82.17
2022-10-23T04:48:15.871Z,82.39
2022-10-23T04:50:42.002Z,82.14
2022-10-23T04:53:08.151Z,82.06
2022-10-23T04:55:34.238Z,82.06
2022-10-23T04:58:00.333Z,82.09
2022-10-23T05:00:26.454Z,81.99
2022-10-23T05:02:52.570Z,82.06
2022-10-23T05:05:18.654Z,82.21
2022-10-23T05:07:45.075Z,81.99
2022-10-23T05:10:11.386Z,82.11
2022-10-23T05:12:37.477Z,82.27
2022-10-23T05:15:03.630Z,82.33
2022-10-23T05:17:29.720Z,82.41
2022-10-23T05:19:55.814Z,82.33
2022-10-23T05:22:21.945Z,82.27
2022-10-23T05:24:50.468Z,82.45
2022-10-23T05:27:16.902Z,82.50
2022-10-23T05:29:43.046Z,82.52
2022-10-23T05:32:09.169Z,82.60
2022-10-23T05:34:35.303Z,82.59
2022-10-23T05:37:01.407Z,82.42
2022-10-23T05:39:27.541Z,82.43
2022-10-23T05:41:53.643Z,82.52
2022-10-23T05:44:19.753Z,82.56
2022-10-23T05:46:45.845Z,82.38
2022-10-23T05:49:11.967Z,82.46
2022-10-23T05:51:38.095Z,82.46
2022-10-23T05:54:04.200Z,82.44
2022-10-23T05:56:30.297Z,82.38
2022-10-23T05:58:56.464Z,82.22
2022-10-23T06:01:22.622Z,82.26
2022-10-23T06:03:48.777Z,82.23
2022-10-23T06:06:14.895Z,81.92
2022-10-23T06:08:40.985Z,81.93
2022-10-23T06:11:07.086Z,81.65
2022-10-23T06:13:33.192Z,81.69
2022-10-23T06:15:59.289Z,81.45
2022-10-23T06:18:25.390Z,81.47
2022-10-23T06:20:51.802Z,81.35
2022-10-23T06:23:17.906Z,81.13
2022-10-23T06:25:44.022Z,81.12
2022-10-23T06:28:10.137Z,80.81
2022-10-23T06:30:36.248Z,80.84
2022-10-23T06:33:04.605Z,80.81
2022-10-23T06:35:32.641Z,80.49
2022-10-23T06:37:58.724Z,80.52
2022-10-23T06:40:24.812Z,80.33
2022-10-23T06:42:50.941Z,80.35
2022-10-23T06:45:17.032Z,80.23
2022-10-23T06:47:43.420Z,80.11
2022-10-23T06:50:13.044Z,79.87
2022-10-23T06:52:46.896Z,79.95
2022-10-23T06:55:13.693Z,79.90
2022-10-23T06:57:39.955Z,79.62
2022-10-23T07:00:06.148Z,79.39
2022-10-23T07:02:32.336Z,79.32
2022-10-23T07:04:58.438Z,79.16
2022-10-23T07:07:24.527Z,79.07
2022-10-23T07:09:50.641Z,78.94
2022-10-23T07:12:16.724Z,78.78
2022-10-23T07:14:42.803Z,78.71
2022-10-23T07:17:08.912Z,78.57
2022-10-23T07:19:35.008Z,78.45
2022-10-23T07:22:01.089Z,78.58
2022-10-23T07:24:27.230Z,78.43
2022-10-23T07:26:53.387Z,78.17
2022-10-23T07:29:19.498Z,78.14
2022-10-23T07:31:45.616Z,78.17
2022-10-23T07:34:11.721Z,78.00
2022-10-23T07:36:37.857Z,77.89
2022-10-23T07:39:03.977Z,77.63
2022-10-23T07:41:30.076Z,77.48
2022-10-23T07:43:56.166Z,77.45
2022-10-23T07:46:22.303Z,77.29
2022-10-23T07:48:48.393Z,77.12
2022-10-23T07:51:14.502Z,77.06
2022-10-23T07:53:40.970Z,77.15
2022-10-23T07:56:07.100Z,76.83
2022-10-23T07:58:33.190Z,76.76
2022-10-23T08:00:59.367Z,76.59
2022-10-23T08:03:25.508Z,76.52
2022-10-23T08:05:51.609Z,76.48
2022-10-23T08:08:17.733Z,76.34
2022-10-23T08:10:43.826Z,76.20
2022-10-23T08:13:09.907Z,76.05
2022-10-23T08:15:36.014Z,75.82
2022-10-23T08:18:02.101Z,75.65
2022-10-23T08:20:28.199Z,75.42
2022-10-23T08:22:54.357Z,75.17
2022-10-23T08:25:24.856Z,74.97
2022-10-23T08:27:52.251Z,74.76
2022-10-23T08:30:18.462Z,74.58
2022-10-23T08:32:44.665Z,74.28
2022-10-23T08:35:10.774Z,73.95
2022-10-23T08:37:36.896Z,73.71
2022-10-23T08:40:03.011Z,73.37
2022-10-23T08:42:29.132Z,73.21
2022-10-23T08:44:55.250Z,72.67
2022-10-23T08:47:21.351Z,72.32
2022-10-23T08:49:47.442Z,72.08
2022-10-23T08:52:14.204Z,71.66
2022-10-23T08:54:40.443Z,71.55
2022-10-23T08:57:06.561Z,71.22
2022-10-23T08:59:32.670Z,71.03
2022-10-23T09:01:58.849Z,70.72
2022-10-23T09:04:24.967Z,70.57
2022-10-23T09:06:51.089Z,70.17
2022-10-23T09:09:17.190Z,70.05
2022-10-23T09:11:43.284Z,69.98
2022-10-23T09:14:09.403Z,69.81
2022-10-23T09:16:35.513Z,69.44
2022-10-23T09:19:01.597Z,69.34
2022-10-23T09:21:27.709Z,69.14
2022-10-23T09:23:53.797Z,68.99
2022-10-23T09:26:19.896Z,68.76
2022-10-23T09:28:46.536Z,68.68
2022-10-23T09:31:12.635Z,68.50
2022-10-23T09:33:38.726Z,68.12
2022-10-23T09:36:05.312Z,68.05
2022-10-23T09:38:31.393Z,67.92
2022-10-23T09:40:57.584Z,67.71
2022-10-23T09:43:23.719Z,67.53
2022-10-23T09:45:49.803Z,67.39
2022-10-23T09:48:15.891Z,67.34
2022-10-23T09:50:42.027Z,67.04
2022-10-23T09:53:08.239Z,66.81
2022-10-23T09:55:34.459Z,66.67
2022-10-23T09:58:01.077Z,66.51
2022-10-23T10:00:27.161Z,66.36
2022-10-23T10:02:53.491Z,66.18
2022-10-23T10:05:19.655Z,66.15
2022-10-23T10:07:45.914Z,66.10
2022-10-23T10:10:12.097Z,66.02
2022-10-23T10:12:38.188Z,65.84
2022-10-23T10:15:04.297Z,65.72
2022-10-23T10:17:30.386Z,66.01
2022-10-23T10:19:56.520Z,65.91
2022-10-23T10:22:22.625Z,65.93
2022-10-23T10:24:48.710Z,65.82
2022-10-23T10:27:14.854Z,65.70
2022-10-23T10:29:40.941Z,65.67
2022-10-23T10:32:07.038Z,65.67
2022-10-23T10:34:33.182Z,65.65
2022-10-23T10:36:59.273Z,65.64
2022-10-23T10:39:25.356Z,65.46
2022-10-23T10:41:51.611Z,65.44
2022-10-23T10:44:17.788Z,65.63
2022-10-23T10:46:43.874Z,65.29
2022-10-23T10:49:10.001Z,65.25
2022-10-23T10:51:36.101Z,65.21
2022-10-23T10:54:02.198Z,65.16
2022-10-23T10:56:28.330Z,65.19
2022-10-23T10:58:54.426Z,65.23
2022-10-23T11:01:20.638Z,65.08
2022-10-23T11:03:47.267Z,65.03
2022-10-23T11:06:13.346Z,64.95
2022-10-23T11:08:50.036Z,65.01
2022-10-23T11:11:23.906Z,65.03
2022-10-23T11:13:49.992Z,65.11
2022-10-23T11:16:16.075Z,64.90
2022-10-23T11:18:42.196Z,64.91
2022-10-23T11:21:08.291Z,64.93
2022-10-23T11:23:34.380Z,64.92
2022-10-23T11:26:00.522Z,64.89
2022-10-23T11:28:26.657Z,64.69
2022-10-23T11:30:52.761Z,64.51
2022-10-23T11:33:18.875Z,64.28
2022-10-23T11:35:45.005Z,64.25
2022-10-23T11:38:11.134Z,64.29
2022-10-23T11:40:37.249Z,64.20
2022-10-23T11:43:03.345Z,64.34
2022-10-23T11:45:29.438Z,64.12
2022-10-23T11:47:55.568Z,63.80
2022-10-23T11:50:21.653Z,63.82
2022-10-23T11:52:50.802Z,63.76
2022-10-23T11:55:22.478Z,63.65
2022-10-23T11:57:48.594Z,63.58
2022-10-23T12:00:15.005Z,63.42
2022-10-23T12:02:41.471Z,63.18
2022-10-23T12:05:07.873Z,63.03
2022-10-23T12:07:33.993Z,62.92
2022-10-23T12:10:00.114Z,62.92
2022-10-23T12:12:26.219Z,62.98
2022-10-23T12:14:52.323Z,62.86
2022-10-23T12:17:18.453Z,62.90
2022-10-23T12:19:44.538Z,62.96
2022-10-23T12:22:10.628Z,62.96
2022-10-23T12:24:36.730Z,62.92
2022-10-23T12:27:02.804Z,62.87
2022-10-23T12:29:28.891Z,62.98
2022-10-23T12:31:54.988Z,62.76
2022-10-23T12:34:21.082Z,62.69
2022-10-23T12:36:47.162Z,62.75
2022-10-23T12:39:13.822Z,62.56
2022-10-23T12:41:39.950Z,62.53
2022-10-23T12:44:06.047Z,62.25
2022-10-23T12:46:32.170Z,62.30
2022-10-23T12:48:58.262Z,62.23
2022-10-23T12:51:24.343Z,62.29
2022-10-23T12:53:50.445Z,62.08
2022-10-23T12:56:16.533Z,62.14
2022-10-23T12:58:42.638Z,62.17
2022-10-23T13:01:08.818Z,62.07
2022-10-23T13:03:35.000Z,62.08
2022-10-23T13:06:01.094Z,62.16
2022-10-23T13:08:27.242Z,62.00
2022-10-23T13:10:53.328Z,61.93
2022-10-23T13:13:19.413Z,61.89
2022-10-23T13:15:45.513Z,61.93
2022-10-23T13:18:11.637Z,61.90
2022-10-23T13:20:37.735Z,62.03
2022-10-23T13:23:03.857Z,62.02
2022-10-23T13:25:29.956Z,61.91
2022-10-23T13:27:56.045Z,61.73
2022-10-23T13:30:22.157Z,61.68
2022-10-23T13:32:48.279Z,61.55
2022-10-23T13:35:21.417Z,61.46
2022-10-23T13:37:48.125Z,61.36
2022-10-23T13:40:14.238Z,61.39
2022-10-23T13:42:40.378Z,61.45
2022-10-23T13:45:06.860Z,61.45
2022-10-23T13:47:32.952Z,61.40
2022-10-23T13:49:59.038Z,61.46
2022-10-23T13:52:25.148Z,61.52
2022-10-23T13:54:51.246Z,61.48
2022-10-23T13:57:17.346Z,61.42
2022-10-23T13:59:43.462Z,61.32
2022-10-23T14:02:09.707Z,61.20
2022-10-23T14:04:35.892Z,61.18
2022-10-23T14:07:02.015Z,61.08
2022-10-23T14:09:28.103Z,60.89
2022-10-23T14:11:54.186Z,60.73
2022-10-23T14:14:20.373Z,60.87
2022-10-23T14:16:46.474Z,60.82
2022-10-23T14:19:12.575Z,60.71
2022-10-23T14:21:38.681Z,60.73
2022-10-23T14:24:04.923Z,60.91
2022-10-23T14:26:30.996Z,60.80
2022-10-23T14:28:59.507Z,60.89
2022-10-23T14:31:28.543Z,60.95
2022-10-23T14:33:54.625Z,61.10
2022-10-23T14:36:20.786Z,61.15
2022-10-23T14:38:46.879Z,61.29
2022-10-23T14:41:12.971Z,61.26
2022-10-23T14:43:39.082Z,61.36
2022-10-23T14:46:05.170Z,61.41
2022-10-23T14:48:31.401Z,61.50
2022-10-23T14:50:57.574Z,61.52
2022-10-23T14:53:23.789Z,61.62
2022-10-23T14:55:50.212Z,61.75
2022-10-23T14:58:16.319Z,61.77
2022-10-23T15:00:42.440Z,61.84
2022-10-23T15:03:08.538Z,61.87
2022-10-23T15:05:34.643Z,61.99
2022-10-23T15:08:00.724Z,62.14
2022-10-23T15:10:26.818Z,62.12
2022-10-23T15:12:52.916Z,62.20
2022-10-23T15:15:19.005Z,62.32
2022-10-23T15:17:45.092Z,62.44
2022-10-23T15:20:11.198Z,62.39
2022-10-23T15:22:37.293Z,62.56
2022-10-23T15:25:03.388Z,62.72
2022-10-23T15:27:29.495Z,62.88
2022-10-23T15:29:55.583Z,63.00
2022-10-23T15:32:21.673Z,63.13
2022-10-23T15:34:47.776Z,63.24
2022-10-23T15:37:13.866Z,63.40
2022-10-23T15:39:39.967Z,63.52
2022-10-23T15:42:06.089Z,63.66
2022-10-23T15:44:32.175Z,63.79
2022-10-23T15:46:58.257Z,63.83
2022-10-23T15:49:24.356Z,63.82
2022-10-23T15:51:50.450Z,63.90
2022-10-23T15:54:16.649Z,63.95
2022-10-23T15:56:42.828Z,64.01
2022-10-23T15:59:08.913Z,64.10
2022-10-23T16:01:35.118Z,64.18
2022-10-23T16:04:01.353Z,64.14
2022-10-23T16:06:27.439Z,64.22
2022-10-23T16:11:24.566Z,64.35
2022-10-23T16:13:50.687Z,64.37
2022-10-23T16:16:16.785Z,64.40
2022-10-23T16:18:42.871Z,64.44
2022-10-23T16:21:08.958Z,64.55
2022-10-23T16:23:35.062Z,64.60
2022-10-23T16:26:01.190Z,64.62
2022-10-23T16:28:27.281Z,64.63
2022-10-23T16:30:53.369Z,64.72
2022-10-23T16:33:19.511Z,64.77
2022-10-23T16:35:45.602Z,64.87
2022-10-23T16:38:11.713Z,64.80
2022-10-23T16:40:37.818Z,64.86
2022-10-23T16:43:03.905Z,64.94
2022-10-23T16:45:33.207Z,64.89
2022-10-23T16:48:01.792Z,64.94
2022-10-23T16:50:27.898Z,65.08
2022-10-23T16:52:55.810Z,65.10
2022-10-23T16:55:22.304Z,65.18
2022-10-23T16:57:48.402Z,65.45
2022-10-23T17:00:14.502Z,66.03
2022-10-23T17:02:40.720Z,66.49
2022-10-23T17:05:06.917Z,66.76
2022-10-23T17:07:33.014Z,67.13
2022-10-23T17:09:59.137Z,67.33
2022-10-23T17:12:25.229Z,67.61
2022-10-23T17:14:51.333Z,67.95
2022-10-23T17:17:17.835Z,68.25
2022-10-23T17:19:45.629Z,68.34
2022-10-23T17:22:12.252Z,68.75
2022-10-23T17:24:38.368Z,68.93
2022-10-23T17:27:04.464Z,69.21
2022-10-23T17:29:30.594Z,69.47
2022-10-23T17:31:56.692Z,69.93
2022-10-23T17:34:23.076Z,70.54
2022-10-23T17:36:49.174Z,71.42
2022-10-23T17:39:15.303Z,72.55
2022-10-23T17:41:41.398Z,73.38
2022-10-23T17:44:07.483Z,73.71
2022-10-23T17:46:33.588Z,74.10
2022-10-23T17:48:59.701Z,74.32
2022-10-23T17:51:25.906Z,74.25
2022-10-23T17:53:52.023Z,74.37
2022-10-23T17:56:18.187Z,74.47
2022-10-23T17:58:44.264Z,74.64
2022-10-23T18:01:10.790Z,74.68
2022-10-23T18:03:36.971Z,74.73
2022-10-23T18:06:03.074Z,74.79
2022-10-23T18:08:29.174Z,75.05
2022-10-23T18:10:55.287Z,75.19
2022-10-23T18:13:21.408Z,75.38
2022-10-23T18:15:47.529Z,75.54
2022-10-23T18:18:13.661Z,75.78
2022-10-23T18:20:39.760Z,75.80
2022-10-23T18:23:05.873Z,76.10
2022-10-23T18:25:31.974Z,76.24
2022-10-23T18:28:01.726Z,76.42
2022-10-23T18:30:28.721Z,76.53
2022-10-23T18:32:54.838Z,76.62
2022-10-23T18:35:20.921Z,76.85
2022-10-23T18:37:47.038Z,77.02
2022-10-23T18:40:13.119Z,77.14
2022-10-23T18:42:39.202Z,77.27
2022-10-23T18:45:05.308Z,77.34
2022-10-23T18:47:31.384Z,77.13
2022-10-23T18:49:57.480Z,77.28
2022-10-23T18:52:23.589Z,77.10
2022-10-23T18:54:49.692Z,77.09
2022-10-23T18:57:15.808Z,77.35
2022-10-23T18:59:41.929Z,77.34
2022-10-23T19:02:08.170Z,77.39
2022-10-23T19:04:36.330Z,77.33
2022-10-23T19:07:02.668Z,77.26
2022-10-23T19:09:28.782Z,77.17
2022-10-23T19:11:54.902Z,77.14
2022-10-23T19:14:21.014Z,77.21
2022-10-23T19:16:47.127Z,77.17
2022-10-23T19:19:13.240Z,77.25
2022-10-23T19:21:39.345Z,77.16
2022-10-23T19:24:05.427Z,77.14
2022-10-23T19:26:31.528Z,77.06
2022-10-23T19:28:57.637Z,77.24
2022-10-23T19:31:23.728Z,77.06
2022-10-23T19:33:49.826Z,77.23
2022-10-23T19:36:17.548Z,77.27
2022-10-23T19:38:44.708Z,77.24
2022-10-23T19:41:10.806Z,77.13
2022-10-23T19:43:36.927Z,77.24
2022-10-23T19:46:05.107Z,77.17
2022-10-23T19:48:33.970Z,77.18
2022-10-23T19:51:00.098Z,77.29
2022-10-23T19:53:26.193Z,77.06
2022-10-23T19:55:52.305Z,76.98
2022-10-23T19:58:18.465Z,77.15
2022-10-23T20:00:44.611Z,77.17
2022-10-23T20:03:10.708Z,77.14
2022-10-23T20:05:37.001Z,76.98
2022-10-23T20:08:03.102Z,77.17
2022-10-23T20:10:29.196Z,77.01
2022-10-23T20:13:02.262Z,77.03
2022-10-23T20:15:34.203Z,76.82
2022-10-23T20:18:00.327Z,76.88
2022-10-23T20:20:26.418Z,76.84
2022-10-23T20:22:55.317Z,76.81
2022-10-23T20:25:21.697Z,76.81
2022-10-23T20:27:47.801Z,76.89
2022-10-23T20:30:13.933Z,77.03
2022-10-23T20:32:40.066Z,77.07
2022-10-23T20:35:06.167Z,77.18
2022-10-23T20:37:32.284Z,77.24
2022-10-23T20:39:58.405Z,77.42
2022-10-23T20:42:24.524Z,77.37
2022-10-23T20:44:50.623Z,77.60
2022-10-23T20:47:16.732Z,77.74
2022-10-23T20:49:42.833Z,77.68
2022-10-23T20:52:08.935Z,77.79
2022-10-23T20:54:35.057Z,78.02
2022-10-23T20:57:01.149Z,78.05
2022-10-23T20:59:27.252Z,78.20
2022-10-23T21:01:53.618Z,78.22
2022-10-23T21:04:20.053Z,78.52
2022-10-23T21:07:04.738Z,78.38
2022-10-23T21:09:32.278Z,78.70
2022-10-23T21:11:58.377Z,78.78
2022-10-23T21:14:24.468Z,78.66
2022-10-23T21:16:50.590Z,78.71
2022-10-23T21:19:16.702Z,78.50
2022-10-23T21:21:42.806Z,78.40
2022-10-23T21:24:08.969Z,78.26
2022-10-23T21:26:35.064Z,77.90
2022-10-23T21:29:17.429Z,77.86
2022-10-23T21:31:44.912Z,77.58
2022-10-23T21:36:54.110Z,77.14
2022-10-23T21:39:28.108Z,76.97
2022-10-23T21:41:54.192Z,77.01
2022-10-23T21:44:20.285Z,76.83
2022-10-23T21:46:46.388Z,76.93
2022-10-23T21:49:12.481Z,77.30
2022-10-23T21:51:38.559Z,77.47
2022-10-23T21:54:04.663Z,77.86
2022-10-23T21:56:30.765Z,78.02
2022-10-23T21:58:56.932Z,78.44
2022-10-23T22:01:23.620Z,78.58
2022-10-23T22:03:49.800Z,78.69
2022-10-23T22:06:15.895Z,78.97
2022-10-23T22:08:42.010Z,78.95
2022-10-23T22:11:08.114Z,79.24
2022-10-23T22:13:34.235Z,79.18
2022-10-23T22:16:00.386Z,79.42
2022-10-23T22:18:26.480Z,79.32
2022-10-23T22:20:52.575Z,79.43
2022-10-23T22:23:18.792Z,79.39
2022-10-23T22:25:44.893Z,79.27
2022-10-23T22:28:10.988Z,79.38
2022-10-23T22:30:37.090Z,79.26
2022-10-23T22:33:03.184Z,79.30
2022-10-23T22:35:29.265Z,79.35
2022-10-23T22:37:55.365Z,79.25
2022-10-23T22:40:21.453Z,79.26
2022-10-23T22:42:47.645Z,79.49
2022-10-23T22:45:13.850Z,79.43
2022-10-23T22:47:39.943Z,79.31
2022-10-23T22:50:06.038Z,79.23
2022-10-23T22:52:32.149Z,79.34
2022-10-23T22:54:58.234Z,79.34
2022-10-23T22:57:24.320Z,79.35
2022-10-23T22:59:50.437Z,79.31
2022-10-23T23:02:16.530Z,79.27
2022-10-23T23:04:42.611Z,79.02
2022-10-23T23:07:08.735Z,79.12
2022-10-23T23:09:34.839Z,79.11
2022-10-23T23:12:00.960Z,78.96
2022-10-23T23:14:27.637Z,78.79
2022-10-23T23:16:53.733Z,78.67
2022-10-23T23:19:19.849Z,78.62
2022-10-23T23:21:46.135Z,78.55
2022-10-23T23:24:12.222Z,78.44
2022-10-23T23:26:38.301Z,78.35
2022-10-23T23:29:04.399Z,78.36
2022-10-23T23:31:30.505Z,78.23
2022-10-23T23:33:56.611Z,78.21
2022-10-23T23:36:22.722Z,78.02
2022-10-23T23:38:48.868Z,78.10
2022-10-23T23:41:15.021Z,77.89
2022-10-23T23:43:41.139Z,77.80
2022-10-23T23:46:07.231Z,77.84
2022-10-23T23:48:33.330Z,77.74
2022-10-23T23:50:59.443Z,77.77
2022-10-23T23:53:25.586Z,77.70
2022-10-23T23:55:51.686Z,77.57
2022-10-23T23:58:17.885Z,77.55
